createdAt,value
2017-08-17T00:00:27.326Z,1012.8
2017-08-17T00:01:28.964Z,1012.9
2017-08-17T00:02:30.603Z,1012.8
2017-08-17T00:03:32.242Z,1012.9
2017-08-17T00:04:33.881Z,1012.8
2017-08-17T00:05:35.522Z,1012.8
2017-08-17T00:06:37.157Z,1012.8
2017-08-17T00:07:38.802Z,1012.8
2017-08-17T00:08:40.430Z,1012.9
2017-08-17T00:09:42.070Z,1012.9
2017-08-17T00:10:43.712Z,1012.9
2017-08-17T00:11:45.352Z,1012.9
2017-08-17T00:12:46.991Z,1012.9
2017-08-17T00:13:48.625Z,1012.9
2017-08-17T00:14:50.265Z,1012.8
2017-08-17T00:15:51.903Z,1012.8
2017-08-17T00:16:53.540Z,1012.8
2017-08-17T00:17:55.183Z,1012.8
2017-08-17T00:18:56.822Z,1012.7
2017-08-17T00:19:58.466Z,1012.7
2017-08-17T00:21:00.104Z,1012.7
2017-08-17T00:22:01.741Z,1012.7
2017-08-17T00:23:03.376Z,1012.7
2017-08-17T00:24:05.015Z,1012.8
2017-08-17T00:25:06.696Z,1012.7
2017-08-17T00:26:08.319Z,1012.8
2017-08-17T00:27:09.959Z,1012.8
2017-08-17T00:28:11.593Z,1012.7
2017-08-17T00:29:13.232Z,1012.8
2017-08-17T00:30:14.869Z,1012.8
2017-08-17T00:31:16.507Z,1012.7
2017-08-17T00:32:18.145Z,1012.7
2017-08-17T00:33:19.797Z,1012.7
2017-08-17T00:34:21.427Z,1012.7
2017-08-17T00:35:23.064Z,1012.7
2017-08-17T00:36:24.704Z,1012.7
2017-08-17T00:37:26.339Z,1012.7
2017-08-17T00:38:27.978Z,1012.7
2017-08-17T00:39:29.620Z,1012.7
2017-08-17T00:40:31.261Z,1012.7
2017-08-17T00:41:32.895Z,1012.7
2017-08-17T00:42:34.535Z,1012.7
2017-08-17T00:43:36.173Z,1012.7
2017-08-17T00:44:37.810Z,1012.8
2017-08-17T00:45:39.451Z,1012.7
2017-08-17T00:46:41.088Z,1012.7
2017-08-17T00:47:42.732Z,1012.7
2017-08-17T00:48:44.368Z,1012.7
2017-08-17T00:49:46.001Z,1012.7
2017-08-17T00:50:47.641Z,1012.6
2017-08-17T00:51:49.275Z,1012.6
2017-08-17T00:52:50.916Z,1012.6
2017-08-17T00:53:52.554Z,1012.6
2017-08-17T00:54:54.197Z,1012.6
2017-08-17T00:55:55.836Z,1012.6
2017-08-17T00:56:57.473Z,1012.7
2017-08-17T00:57:59.109Z,1012.6
2017-08-17T00:59:00.743Z,1012.6
2017-08-17T01:00:02.384Z,1012.7
2017-08-17T01:01:04.020Z,1012.7
2017-08-17T01:02:05.663Z,1012.7
2017-08-17T01:03:07.303Z,1012.7
2017-08-17T01:04:08.943Z,1012.6
2017-08-17T01:05:10.577Z,1012.6
2017-08-17T01:06:12.214Z,1012.6
2017-08-17T01:07:13.849Z,1012.5
2017-08-17T01:08:15.488Z,1012.6
2017-08-17T01:09:17.127Z,1012.6
2017-08-17T01:10:18.771Z,1012.6
2017-08-17T01:11:20.406Z,1012.6
2017-08-17T01:12:22.047Z,1012.5
2017-08-17T01:13:23.684Z,1012.5
2017-08-17T01:14:25.325Z,1012.5
2017-08-17T01:15:26.965Z,1012.5
2017-08-17T01:16:28.605Z,1012.5
2017-08-17T01:17:30.246Z,1012.5
2017-08-17T01:18:31.883Z,1012.5
2017-08-17T01:19:33.517Z,1012.5
2017-08-17T01:20:35.153Z,1012.4
2017-08-17T01:21:36.794Z,1012.5
2017-08-17T01:22:38.434Z,1012.5
2017-08-17T01:23:40.073Z,1012.5
2017-08-17T01:24:41.713Z,1012.5
2017-08-17T01:25:43.349Z,1012.5
2017-08-17T01:26:44.985Z,1012.5
2017-08-17T01:27:46.621Z,1012.4
2017-08-17T01:28:48.262Z,1012.4
2017-08-17T01:29:49.901Z,1012.4
2017-08-17T01:30:51.541Z,1012.4
2017-08-17T01:31:53.177Z,1012.4
2017-08-17T01:32:54.819Z,1012.4
2017-08-17T01:33:56.450Z,1012.5
2017-08-17T01:34:58.091Z,1012.4
2017-08-17T01:35:59.730Z,1012.4
2017-08-17T01:37:01.369Z,1012.4
2017-08-17T01:38:03.006Z,1012.4
2017-08-17T01:39:04.648Z,1012.4
2017-08-17T01:40:06.281Z,1012.4
2017-08-17T01:41:07.920Z,1012.4
2017-08-17T01:42:09.555Z,1012.4
2017-08-17T01:43:11.194Z,1012.4
2017-08-17T01:44:12.838Z,1012.4
2017-08-17T01:45:14.479Z,1012.3
2017-08-17T01:46:16.118Z,1012.3
2017-08-17T01:47:17.752Z,1012.3
2017-08-17T01:48:19.389Z,1012.3
2017-08-17T01:49:21.031Z,1012.3
2017-08-17T01:50:22.665Z,1012.4
2017-08-17T01:51:24.304Z,1012.4
2017-08-17T01:52:25.942Z,1012.4
2017-08-17T01:53:27.585Z,1012.4
2017-08-17T01:54:29.223Z,1012.4
2017-08-17T01:55:30.858Z,1012.4
2017-08-17T01:56:32.494Z,1012.4
2017-08-17T01:57:34.140Z,1012.4
2017-08-17T01:58:35.772Z,1012.3
2017-08-17T01:59:37.413Z,1012.3
2017-08-17T02:00:39.053Z,1012.3
2017-08-17T02:01:40.689Z,1012.3
2017-08-17T02:02:42.330Z,1012.3
2017-08-17T02:03:43.965Z,1012.3
2017-08-17T02:04:45.602Z,1012.3
2017-08-17T02:05:47.238Z,1012.3
2017-08-17T02:06:48.878Z,1012.3
2017-08-17T02:07:50.517Z,1012.3
2017-08-17T02:08:52.152Z,1012.4
2017-08-17T02:09:53.790Z,1012.3
2017-08-17T02:10:55.428Z,1012.4
2017-08-17T02:11:57.068Z,1012.4
2017-08-17T02:12:58.705Z,1012.5
2017-08-17T02:14:00.348Z,1012.5
2017-08-17T02:15:01.988Z,1012.5
2017-08-17T02:16:03.623Z,1012.6
2017-08-17T02:17:05.261Z,1012.6
2017-08-17T02:18:06.896Z,1012.6
2017-08-17T02:19:08.532Z,1012.6
2017-08-17T02:20:10.170Z,1012.6
2017-08-17T02:21:11.810Z,1012.7
2017-08-17T02:22:13.452Z,1012.7
2017-08-17T02:23:15.084Z,1012.7
2017-08-17T02:24:16.719Z,1012.7
2017-08-17T02:25:18.356Z,1012.7
2017-08-17T02:26:19.996Z,1012.7
2017-08-17T02:27:21.632Z,1012.6
2017-08-17T02:28:23.270Z,1012.6
2017-08-17T02:29:24.910Z,1012.6
2017-08-17T02:30:26.546Z,1012.7
2017-08-17T02:31:28.183Z,1012.7
2017-08-17T02:32:29.825Z,1012.7
2017-08-17T02:33:31.458Z,1012.7
2017-08-17T02:34:33.100Z,1012.6
2017-08-17T02:35:34.736Z,1012.6
2017-08-17T02:36:36.378Z,1012.6
2017-08-17T02:37:38.017Z,1012.7
2017-08-17T02:38:39.652Z,1012.6
2017-08-17T02:39:41.295Z,1012.7
2017-08-17T02:40:42.929Z,1012.6
2017-08-17T02:41:44.569Z,1012.6
2017-08-17T02:42:46.205Z,1012.6
2017-08-17T02:43:47.843Z,1012.6
2017-08-17T02:44:49.492Z,1012.6
2017-08-17T02:45:51.126Z,1012.6
2017-08-17T02:46:52.765Z,1012.6
2017-08-17T02:47:54.401Z,1012.6
2017-08-17T02:48:56.038Z,1012.5
2017-08-17T02:49:57.678Z,1012.5
2017-08-17T02:50:59.318Z,1012.5
2017-08-17T02:52:00.955Z,1012.5
2017-08-17T02:53:02.600Z,1012.5
2017-08-17T02:54:04.233Z,1012.5
2017-08-17T02:55:05.875Z,1012.5
2017-08-17T02:56:07.510Z,1012.5
2017-08-17T02:57:09.150Z,1012.4
2017-08-17T02:58:10.791Z,1012.4
2017-08-17T02:59:12.426Z,1012.4
2017-08-17T03:00:14.063Z,1012.3
2017-08-17T03:01:15.704Z,1012.3
2017-08-17T03:02:17.338Z,1012.3
2017-08-17T03:03:18.981Z,1012.3
2017-08-17T03:04:20.618Z,1012.3
2017-08-17T03:05:22.261Z,1012.3
2017-08-17T03:06:23.895Z,1012.3
2017-08-17T03:07:25.535Z,1012.3
2017-08-17T03:08:27.165Z,1012.3
2017-08-17T03:09:28.809Z,1012.3
2017-08-17T03:10:30.448Z,1012.3
2017-08-17T03:11:32.088Z,1012.3
2017-08-17T03:12:33.725Z,1012.3
2017-08-17T03:13:35.363Z,1012.3
2017-08-17T03:14:36.998Z,1012.3
2017-08-17T03:15:38.639Z,1012.3
2017-08-17T03:16:40.277Z,1012.3
2017-08-17T03:17:41.914Z,1012.3
2017-08-17T03:18:43.555Z,1012.3
2017-08-17T03:19:45.195Z,1012.3
2017-08-17T03:20:46.828Z,1012.4
2017-08-17T03:21:48.463Z,1012.3
2017-08-17T03:22:50.097Z,1012.3
2017-08-17T03:23:51.736Z,1012.4
2017-08-17T03:24:53.376Z,1012.3
2017-08-17T03:25:55.013Z,1012.3
2017-08-17T03:26:56.652Z,1012.3
2017-08-17T03:27:58.287Z,1012.3
2017-08-17T03:28:59.922Z,1012.3
2017-08-17T03:30:01.565Z,1012.3
2017-08-17T03:31:03.210Z,1012.3
2017-08-17T03:32:04.840Z,1012.3
2017-08-17T03:33:06.479Z,1012.3
2017-08-17T03:34:08.117Z,1012.3
2017-08-17T03:35:09.759Z,1012.3
2017-08-17T03:36:11.395Z,1012.3
2017-08-17T03:37:13.028Z,1012.3
2017-08-17T03:38:14.668Z,1012.3
2017-08-17T03:39:16.310Z,1012.2
2017-08-17T03:40:17.949Z,1012.2
2017-08-17T03:41:19.592Z,1012.2
2017-08-17T03:42:21.226Z,1012.2
2017-08-17T03:43:22.862Z,1012.2
2017-08-17T03:44:24.495Z,1012.2
2017-08-17T03:45:26.137Z,1012.2
2017-08-17T03:46:27.775Z,1012.2
2017-08-17T03:47:29.416Z,1012.2
2017-08-17T03:48:31.055Z,1012.3
2017-08-17T03:49:32.691Z,1012.3
2017-08-17T03:50:34.328Z,1012.3
2017-08-17T03:51:35.965Z,1012.2
2017-08-17T03:52:37.604Z,1012.3
2017-08-17T03:53:39.245Z,1012.2
2017-08-17T03:54:40.886Z,1012.2
2017-08-17T03:55:42.523Z,1012.2
2017-08-17T03:56:44.160Z,1012.2
2017-08-17T03:57:45.798Z,1012.2
2017-08-17T03:58:47.435Z,1012.2
2017-08-17T03:59:49.070Z,1012.2
2017-08-17T04:00:50.706Z,1012.2
2017-08-17T04:01:52.345Z,1012.2
2017-08-17T04:02:53.983Z,1012.2
2017-08-17T04:03:55.621Z,1012.1
2017-08-17T04:04:57.253Z,1012.1
2017-08-17T04:05:58.913Z,1012.1
2017-08-17T04:07:00.525Z,1012.2
2017-08-17T04:08:02.166Z,1012.1
2017-08-17T04:09:03.808Z,1012.1
2017-08-17T04:10:05.448Z,1012.1
2017-08-17T04:11:07.084Z,1012.1
2017-08-17T04:12:08.719Z,1012.1
2017-08-17T04:13:10.355Z,1012.1
2017-08-17T04:14:11.992Z,1012.1
2017-08-17T04:15:13.633Z,1012.1
2017-08-17T04:16:15.271Z,1012.1
2017-08-17T04:17:16.914Z,1012.0
2017-08-17T04:18:18.548Z,1012.0
2017-08-17T04:19:20.185Z,1012.0
2017-08-17T04:20:21.817Z,1012.0
2017-08-17T04:21:23.455Z,1012.0
2017-08-17T04:22:25.099Z,1012.0
2017-08-17T04:23:26.737Z,1012.0
2017-08-17T04:24:28.380Z,1012.0
2017-08-17T04:25:30.010Z,1012.0
2017-08-17T04:26:31.651Z,1011.9
2017-08-17T04:27:33.292Z,1012.0
2017-08-17T04:28:34.927Z,1012.0
2017-08-17T04:29:36.570Z,1012.0
2017-08-17T04:30:38.216Z,1012.0
2017-08-17T04:31:39.846Z,1012.0
2017-08-17T04:32:41.487Z,1012.0
2017-08-17T04:33:43.123Z,1012.0
2017-08-17T04:34:44.760Z,1011.9
2017-08-17T04:35:46.401Z,1011.9
2017-08-17T04:36:48.037Z,1011.9
2017-08-17T04:37:49.681Z,1011.9
2017-08-17T04:38:51.323Z,1011.8
2017-08-17T04:39:52.957Z,1011.8
2017-08-17T04:40:54.591Z,1011.8
2017-08-17T04:41:56.229Z,1011.8
2017-08-17T04:42:57.867Z,1011.8
2017-08-17T04:43:59.511Z,1011.7
2017-08-17T04:45:01.149Z,1011.7
2017-08-17T04:46:02.793Z,1011.7
2017-08-17T04:47:04.430Z,1011.7
2017-08-17T04:48:06.067Z,1011.7
2017-08-17T04:49:07.705Z,1011.7
2017-08-17T04:50:09.342Z,1011.7
2017-08-17T04:51:10.985Z,1011.7
2017-08-17T04:52:12.623Z,1011.7
2017-08-17T04:53:14.262Z,1011.7
2017-08-17T04:54:15.904Z,1011.7
2017-08-17T04:55:17.541Z,1011.7
2017-08-17T04:56:19.374Z,1011.6
2017-08-17T04:57:21.014Z,1011.6
2017-08-17T04:58:22.654Z,1011.6
2017-08-17T04:59:24.294Z,1011.6
2017-08-17T05:00:25.934Z,1011.6
2017-08-17T05:01:27.579Z,1011.6
2017-08-17T05:02:29.206Z,1011.6
2017-08-17T05:03:30.844Z,1011.6
2017-08-17T05:04:32.483Z,1011.6
2017-08-17T05:05:34.126Z,1011.6
2017-08-17T05:06:35.767Z,1011.6
2017-08-17T05:07:37.407Z,1011.5
2017-08-17T05:08:39.044Z,1011.6
2017-08-17T05:09:40.680Z,1011.6
2017-08-17T05:10:42.317Z,1011.6
2017-08-17T05:11:43.955Z,1011.6
2017-08-17T05:12:45.594Z,1011.6
2017-08-17T05:13:47.244Z,1011.7
2017-08-17T05:14:48.884Z,1011.7
2017-08-17T05:15:50.521Z,1011.6
2017-08-17T05:16:52.158Z,1011.7
2017-08-17T05:17:53.795Z,1011.6
2017-08-17T05:18:55.437Z,1011.7
2017-08-17T05:19:57.072Z,1011.6
2017-08-17T05:20:58.713Z,1011.6
2017-08-17T05:22:00.353Z,1011.6
2017-08-17T05:23:01.992Z,1011.7
2017-08-17T05:24:03.631Z,1011.6
2017-08-17T05:25:05.270Z,1011.7
2017-08-17T05:26:06.929Z,1011.6
2017-08-17T05:27:08.548Z,1011.6
2017-08-17T05:28:10.192Z,1011.6
2017-08-17T05:29:11.829Z,1011.6
2017-08-17T05:30:13.465Z,1011.6
2017-08-17T05:31:15.107Z,1011.5
2017-08-17T05:32:16.744Z,1011.6
2017-08-17T05:33:18.379Z,1011.6
2017-08-17T05:34:20.017Z,1011.6
2017-08-17T05:35:21.659Z,1011.6
2017-08-17T05:36:23.297Z,1011.6
2017-08-17T05:37:24.936Z,1011.6
2017-08-17T05:38:26.573Z,1011.5
2017-08-17T05:39:28.213Z,1011.5
2017-08-17T05:40:29.851Z,1011.5
2017-08-17T05:41:31.494Z,1011.5
2017-08-17T05:42:33.135Z,1011.4
2017-08-17T05:43:34.774Z,1011.5
2017-08-17T05:44:36.412Z,1011.4
2017-08-17T05:45:38.048Z,1011.4
2017-08-17T05:46:39.689Z,1011.3
2017-08-17T05:47:41.329Z,1011.3
2017-08-17T05:48:42.971Z,1011.3
2017-08-17T05:49:44.608Z,1011.3
2017-08-17T05:50:46.253Z,1011.3
2017-08-17T05:51:47.892Z,1011.3
2017-08-17T05:52:49.530Z,1011.3
2017-08-17T05:53:51.168Z,1011.4
2017-08-17T05:54:52.807Z,1011.4
2017-08-17T05:55:54.447Z,1011.4
2017-08-17T05:56:56.086Z,1011.4
2017-08-17T05:57:57.730Z,1011.4
2017-08-17T05:58:59.366Z,1011.4
2017-08-17T06:00:01.002Z,1011.3
2017-08-17T06:01:02.641Z,1011.3
2017-08-17T06:02:04.284Z,1011.3
2017-08-17T06:03:05.924Z,1011.3
2017-08-17T06:04:07.568Z,1011.3
2017-08-17T06:05:09.203Z,1011.3
2017-08-17T06:06:10.839Z,1011.3
2017-08-17T06:07:12.476Z,1011.3
2017-08-17T06:08:14.115Z,1011.3
2017-08-17T06:09:15.753Z,1011.3
2017-08-17T06:10:17.389Z,1011.4
2017-08-17T06:11:19.031Z,1011.4
2017-08-17T06:12:20.676Z,1011.4
2017-08-17T06:13:22.317Z,1011.4
2017-08-17T06:14:23.953Z,1011.4
2017-08-17T06:15:25.586Z,1011.4
2017-08-17T06:16:27.227Z,1011.4
2017-08-17T06:17:28.870Z,1011.4
2017-08-17T06:18:30.511Z,1011.4
2017-08-17T06:19:32.157Z,1011.3
2017-08-17T06:20:33.791Z,1011.4
2017-08-17T06:21:35.434Z,1011.4
2017-08-17T06:22:37.070Z,1011.4
2017-08-17T06:23:38.714Z,1011.4
2017-08-17T06:24:40.354Z,1011.4
2017-08-17T06:25:41.998Z,1011.4
2017-08-17T06:26:43.667Z,1011.4
2017-08-17T06:27:45.320Z,1011.4
2017-08-17T06:28:46.958Z,1011.4
2017-08-17T06:29:48.596Z,1011.4
2017-08-17T06:30:50.229Z,1011.4
2017-08-17T06:31:51.870Z,1011.4
2017-08-17T06:32:53.509Z,1011.4
2017-08-17T06:33:55.148Z,1011.4
2017-08-17T06:34:56.787Z,1011.4
2017-08-17T06:35:58.422Z,1011.4
2017-08-17T06:37:00.063Z,1011.4
2017-08-17T06:38:01.698Z,1011.4
2017-08-17T06:39:03.338Z,1011.3
2017-08-17T06:40:04.988Z,1011.3
2017-08-17T06:41:06.626Z,1011.4
2017-08-17T06:42:08.261Z,1011.4
2017-08-17T06:43:09.899Z,1011.4
2017-08-17T06:44:11.535Z,1011.4
2017-08-17T06:45:13.177Z,1011.4
2017-08-17T06:46:14.818Z,1011.3
2017-08-17T06:47:16.458Z,1011.4
2017-08-17T06:48:18.097Z,1011.3
2017-08-17T06:49:19.740Z,1011.4
2017-08-17T06:50:21.373Z,1011.4
2017-08-17T06:51:23.013Z,1011.4
2017-08-17T06:52:24.652Z,1011.4
2017-08-17T06:53:26.293Z,1011.4
2017-08-17T06:54:27.939Z,1011.4
2017-08-17T06:55:29.605Z,1011.4
2017-08-17T06:56:31.217Z,1011.4
2017-08-17T06:57:32.853Z,1011.4
2017-08-17T06:58:34.490Z,1011.4
2017-08-17T06:59:36.129Z,1011.4
2017-08-17T07:00:37.767Z,1011.4
2017-08-17T07:01:39.409Z,1011.4
2017-08-17T07:02:41.050Z,1011.3
2017-08-17T07:03:42.686Z,1011.4
2017-08-17T07:04:44.325Z,1011.4
2017-08-17T07:05:45.965Z,1011.3
2017-08-17T07:06:47.599Z,1011.3
2017-08-17T07:07:49.239Z,1011.3
2017-08-17T07:08:50.876Z,1011.2
2017-08-17T07:09:52.521Z,1011.2
2017-08-17T07:10:54.161Z,1011.2
2017-08-17T07:11:55.800Z,1011.3
2017-08-17T07:12:57.438Z,1011.3
2017-08-17T07:13:59.078Z,1011.3
2017-08-17T07:15:00.719Z,1011.3
2017-08-17T07:16:02.360Z,1011.3
2017-08-17T07:17:04.001Z,1011.3
2017-08-17T07:18:05.636Z,1011.3
2017-08-17T07:19:07.272Z,1011.3
2017-08-17T07:20:08.910Z,1011.3
2017-08-17T07:21:10.549Z,1011.3
2017-08-17T07:22:12.192Z,1011.3
2017-08-17T07:23:13.847Z,1011.3
2017-08-17T07:24:15.468Z,1011.3
2017-08-17T07:25:17.105Z,1011.3
2017-08-17T07:26:18.745Z,1011.3
2017-08-17T07:27:20.385Z,1011.3
2017-08-17T07:28:22.023Z,1011.3
2017-08-17T07:29:23.660Z,1011.2
2017-08-17T07:30:25.299Z,1011.2
2017-08-17T07:31:26.941Z,1011.2
2017-08-17T07:32:28.581Z,1011.2
2017-08-17T07:33:30.228Z,1011.1
2017-08-17T07:34:31.859Z,1011.1
2017-08-17T07:35:33.500Z,1011.1
2017-08-17T07:36:35.142Z,1011.1
2017-08-17T07:37:36.784Z,1011.1
2017-08-17T07:38:38.447Z,1011.1
2017-08-17T07:39:40.078Z,1011.1
2017-08-17T07:40:41.719Z,1011.1
2017-08-17T07:41:43.356Z,1011.1
2017-08-17T07:42:44.995Z,1011.2
2017-08-17T07:43:46.636Z,1011.1
2017-08-17T07:44:48.280Z,1011.1
2017-08-17T07:45:49.918Z,1011.1
2017-08-17T07:46:51.559Z,1011.1
2017-08-17T07:47:53.199Z,1011.1
2017-08-17T07:48:54.843Z,1011.1
2017-08-17T07:49:56.479Z,1011.1
2017-08-17T07:50:58.119Z,1011.1
2017-08-17T07:51:59.762Z,1011.0
2017-08-17T07:53:01.403Z,1011.1
2017-08-17T07:54:03.040Z,1011.0
2017-08-17T07:55:04.679Z,1011.1
2017-08-17T07:56:06.317Z,1011.1
2017-08-17T07:57:07.963Z,1011.1
2017-08-17T07:58:09.599Z,1011.1
2017-08-17T07:59:11.242Z,1011.0
2017-08-17T08:00:12.884Z,1011.1
2017-08-17T08:01:14.520Z,1011.1
2017-08-17T08:02:16.156Z,1011.0
2017-08-17T08:03:17.794Z,1011.0
2017-08-17T08:04:19.458Z,1011.0
2017-08-17T08:05:21.075Z,1011.0
2017-08-17T08:06:22.712Z,1011.0
2017-08-17T08:07:24.357Z,1011.0
2017-08-17T08:08:25.995Z,1011.0
2017-08-17T08:09:27.639Z,1011.0
2017-08-17T08:10:29.283Z,1011.0
2017-08-17T08:11:30.919Z,1011.0
2017-08-17T08:12:32.563Z,1011.0
2017-08-17T08:13:34.198Z,1011.0
2017-08-17T08:14:35.841Z,1011.0
2017-08-17T08:15:37.476Z,1011.0
2017-08-17T08:16:39.119Z,1011.0
2017-08-17T08:17:40.756Z,1011.0
2017-08-17T08:18:42.397Z,1011.0
2017-08-17T08:19:44.036Z,1011.0
2017-08-17T08:20:45.698Z,1010.9
2017-08-17T08:21:47.335Z,1011.0
2017-08-17T08:22:48.978Z,1010.9
2017-08-17T08:23:50.615Z,1010.9
2017-08-17T08:24:52.266Z,1010.9
2017-08-17T08:25:53.901Z,1011.0
2017-08-17T08:26:55.542Z,1011.0
2017-08-17T08:27:57.183Z,1011.0
2017-08-17T08:28:58.827Z,1011.0
2017-08-17T08:30:00.463Z,1011.0
2017-08-17T08:31:02.098Z,1011.0
2017-08-17T08:32:03.763Z,1011.0
2017-08-17T08:33:05.406Z,1011.0
2017-08-17T08:34:07.042Z,1011.0
2017-08-17T08:35:08.685Z,1011.0
2017-08-17T08:36:10.327Z,1011.0
2017-08-17T08:37:11.973Z,1011.0
2017-08-17T08:38:13.609Z,1011.0
2017-08-17T08:39:15.248Z,1011.0
2017-08-17T08:40:16.888Z,1011.0
2017-08-17T08:41:18.526Z,1011.0
2017-08-17T08:42:20.167Z,1011.0
2017-08-17T08:43:21.809Z,1011.0
2017-08-17T08:44:23.444Z,1011.0
2017-08-17T08:45:25.085Z,1011.0
2017-08-17T08:46:26.724Z,1011.0
2017-08-17T08:47:28.365Z,1011.0
2017-08-17T08:48:30.007Z,1010.9
2017-08-17T08:49:31.646Z,1011.0
2017-08-17T08:50:33.287Z,1010.9
2017-08-17T08:51:34.926Z,1010.9
2017-08-17T08:52:36.562Z,1010.9
2017-08-17T08:53:38.199Z,1010.9
2017-08-17T08:54:39.843Z,1010.9
2017-08-17T08:55:41.478Z,1010.9
2017-08-17T08:56:43.119Z,1010.8
2017-08-17T08:57:44.764Z,1010.9
2017-08-17T08:58:46.397Z,1010.9
2017-08-17T08:59:48.037Z,1010.8
2017-08-17T09:00:49.690Z,1010.8
2017-08-17T09:01:51.376Z,1010.8
2017-08-17T09:02:53.016Z,1010.8
2017-08-17T09:03:54.657Z,1010.8
2017-08-17T09:04:56.296Z,1010.7
2017-08-17T09:05:57.936Z,1010.7
2017-08-17T09:06:59.576Z,1010.7
2017-08-17T09:08:01.213Z,1010.7
2017-08-17T09:09:02.854Z,1010.7
2017-08-17T09:10:04.495Z,1010.6
2017-08-17T09:11:06.130Z,1010.6
2017-08-17T09:12:07.774Z,1010.6
2017-08-17T09:13:09.409Z,1010.7
2017-08-17T09:14:11.048Z,1010.6
2017-08-17T09:15:12.684Z,1010.6
2017-08-17T09:16:14.334Z,1010.6
2017-08-17T09:17:15.973Z,1010.7
2017-08-17T09:18:17.610Z,1010.6
2017-08-17T09:19:19.254Z,1010.6
2017-08-17T09:20:20.893Z,1010.6
2017-08-17T09:21:22.529Z,1010.6
2017-08-17T09:22:24.170Z,1010.6
2017-08-17T09:23:25.809Z,1010.6
2017-08-17T09:24:27.466Z,1010.6
2017-08-17T09:25:29.110Z,1010.6
2017-08-17T09:26:30.759Z,1010.5
2017-08-17T09:27:32.393Z,1010.5
2017-08-17T09:28:34.040Z,1010.5
2017-08-17T09:29:35.681Z,1010.5
2017-08-17T09:30:37.315Z,1010.5
2017-08-17T09:31:38.958Z,1010.5
2017-08-17T09:32:40.601Z,1010.5
2017-08-17T09:33:42.243Z,1010.5
2017-08-17T09:34:43.885Z,1010.4
2017-08-17T09:35:45.520Z,1010.4
2017-08-17T09:36:47.156Z,1010.4
2017-08-17T09:37:48.793Z,1010.4
2017-08-17T09:38:50.441Z,1010.5
2017-08-17T09:39:52.073Z,1010.4
2017-08-17T09:40:53.718Z,1010.4
2017-08-17T09:41:55.354Z,1010.4
2017-08-17T09:42:56.989Z,1010.4
2017-08-17T09:43:58.629Z,1010.4
2017-08-17T09:45:00.266Z,1010.4
2017-08-17T09:46:01.907Z,1010.4
2017-08-17T09:47:03.548Z,1010.4
2017-08-17T09:48:05.190Z,1010.4
2017-08-17T09:49:06.828Z,1010.4
2017-08-17T09:50:08.474Z,1010.4
2017-08-17T09:51:10.113Z,1010.4
2017-08-17T09:52:11.753Z,1010.3
2017-08-17T09:53:13.389Z,1010.4
2017-08-17T09:54:15.037Z,1010.4
2017-08-17T09:55:16.675Z,1010.4
2017-08-17T09:56:18.312Z,1010.3
2017-08-17T09:57:19.955Z,1010.3
2017-08-17T09:58:21.602Z,1010.2
2017-08-17T09:59:23.240Z,1010.2
2017-08-17T10:00:24.886Z,1010.2
2017-08-17T10:01:26.520Z,1010.2
2017-08-17T10:02:28.165Z,1010.1
2017-08-17T10:03:29.801Z,1010.1
2017-08-17T10:04:31.438Z,1010.1
2017-08-17T10:05:33.102Z,1010.0
2017-08-17T10:06:34.731Z,1010.0
2017-08-17T10:07:36.374Z,1010.0
2017-08-17T10:08:38.016Z,1010.0
2017-08-17T10:09:39.654Z,1010.1
2017-08-17T10:10:41.295Z,1010.1
2017-08-17T10:11:42.936Z,1010.1
2017-08-17T10:12:44.581Z,1010.1
2017-08-17T10:13:46.220Z,1010.1
2017-08-17T10:14:47.859Z,1010.1
2017-08-17T10:15:49.501Z,1010.1
2017-08-17T10:16:51.149Z,1010.1
2017-08-17T10:17:52.788Z,1010.1
2017-08-17T10:18:54.427Z,1010.0
2017-08-17T10:19:56.066Z,1010.0
2017-08-17T10:20:57.708Z,1010.0
2017-08-17T10:21:59.351Z,1010.0
2017-08-17T10:23:00.988Z,1010.0
2017-08-17T10:24:02.628Z,1010.0
2017-08-17T10:25:04.264Z,1009.9
2017-08-17T10:26:05.904Z,1010.0
2017-08-17T10:27:07.542Z,1009.9
2017-08-17T10:28:09.186Z,1010.0
2017-08-17T10:29:10.825Z,1009.9
2017-08-17T10:30:12.467Z,1009.9
2017-08-17T10:31:14.117Z,1009.9
2017-08-17T10:32:15.756Z,1009.9
2017-08-17T10:33:17.392Z,1009.9
2017-08-17T10:34:19.029Z,1009.9
2017-08-17T10:35:20.668Z,1009.8
2017-08-17T10:36:22.312Z,1009.9
2017-08-17T10:37:23.951Z,1009.8
2017-08-17T10:38:25.595Z,1009.9
2017-08-17T10:39:27.236Z,1009.9
2017-08-17T10:40:28.872Z,1009.9
2017-08-17T10:41:30.511Z,1009.9
2017-08-17T10:42:32.152Z,1009.9
2017-08-17T10:43:33.792Z,1009.8
2017-08-17T10:44:35.434Z,1009.9
2017-08-17T10:45:37.073Z,1009.8
2017-08-17T10:46:38.712Z,1009.8
2017-08-17T10:47:40.351Z,1009.8
2017-08-17T10:48:41.988Z,1009.9
2017-08-17T10:49:43.626Z,1009.9
2017-08-17T10:50:45.266Z,1009.9
2017-08-17T10:51:46.908Z,1009.9
2017-08-17T10:52:48.549Z,1009.9
2017-08-17T10:53:50.187Z,1009.8
2017-08-17T10:54:51.823Z,1009.8
2017-08-17T10:55:53.464Z,1009.8
2017-08-17T10:56:55.102Z,1009.8
2017-08-17T10:57:56.738Z,1009.9
2017-08-17T11:01:18.332Z,1009.8
2017-08-17T11:02:19.966Z,1009.8
2017-08-17T11:04:12.213Z,1009.8
2017-08-17T11:05:13.855Z,1009.9
2017-08-17T11:07:06.139Z,1009.8
2017-08-17T11:08:07.780Z,1009.8
2017-08-17T11:10:00.024Z,1009.8
2017-08-17T11:12:12.302Z,1009.8
2017-08-17T11:13:13.936Z,1009.8
2017-08-17T11:15:06.180Z,1009.9
2017-08-17T11:16:07.821Z,1009.9
2017-08-17T11:18:00.082Z,1009.9
2017-08-17T11:19:01.716Z,1009.9
2017-08-17T11:20:53.965Z,1009.9
2017-08-17T11:21:55.605Z,1009.8
2017-08-17T11:23:47.869Z,1009.9
2017-08-17T11:24:49.509Z,1009.9
2017-08-17T11:26:41.751Z,1010.0
2017-08-17T11:27:43.390Z,1009.9
2017-08-17T11:29:35.658Z,1009.9
2017-08-17T11:30:37.295Z,1009.9
2017-08-17T11:32:29.539Z,1009.9
2017-08-17T11:33:31.175Z,1009.9
2017-08-17T11:35:23.439Z,1009.9
2017-08-17T11:36:25.076Z,1009.8
2017-08-17T11:38:17.324Z,1009.8
2017-08-17T11:39:18.959Z,1009.8
2017-08-17T11:41:11.222Z,1009.8
2017-08-17T11:42:12.859Z,1009.8
2017-08-17T11:44:05.105Z,1009.8
2017-08-17T11:45:06.759Z,1009.8
2017-08-17T11:46:59.028Z,1009.8
2017-08-17T11:48:00.665Z,1009.8
2017-08-17T11:49:52.910Z,1009.7
2017-08-17T11:50:54.545Z,1009.7
2017-08-17T11:52:46.826Z,1009.7
2017-08-17T11:53:48.458Z,1009.7
2017-08-17T11:55:40.704Z,1009.7
2017-08-17T11:56:42.343Z,1009.7
2017-08-17T11:58:34.604Z,1009.7
2017-08-17T11:59:36.239Z,1009.7
2017-08-17T12:01:28.486Z,1009.6
2017-08-17T12:02:30.126Z,1009.6
2017-08-17T12:04:22.389Z,1009.7
2017-08-17T12:05:24.026Z,1009.7
2017-08-17T12:07:16.274Z,1009.7
2017-08-17T12:08:17.910Z,1009.7
2017-08-17T12:10:10.174Z,1009.7
2017-08-17T12:11:11.815Z,1009.7
2017-08-17T12:13:04.062Z,1009.7
2017-08-17T12:14:05.697Z,1009.7
2017-08-17T12:15:57.965Z,1009.8
2017-08-17T12:16:59.598Z,1009.7
2017-08-17T12:18:51.850Z,1009.7
2017-08-17T12:19:53.489Z,1009.8
2017-08-17T12:21:45.765Z,1009.8
2017-08-17T12:22:47.400Z,1009.8
2017-08-17T12:24:39.644Z,1009.8
2017-08-17T12:25:41.278Z,1009.9
2017-08-17T12:27:33.055Z,1009.9
2017-08-17T12:28:34.697Z,1009.9
2017-08-17T12:30:26.948Z,1009.9
2017-08-17T12:31:28.586Z,1009.9
2017-08-17T12:33:20.874Z,1009.9
2017-08-17T12:34:22.513Z,1009.9
2017-08-17T12:35:24.148Z,1009.9
2017-08-17T12:36:25.783Z,1009.9
2017-08-17T12:37:27.426Z,1010.0
2017-08-17T12:38:29.078Z,1010.0
2017-08-17T12:39:30.721Z,1010.0
2017-08-17T12:40:32.359Z,1010.0
2017-08-17T12:41:33.996Z,1010.0
2017-08-17T12:42:35.642Z,1010.0
2017-08-17T12:43:37.287Z,1010.1
2017-08-17T12:44:38.936Z,1010.1
2017-08-17T12:45:40.570Z,1010.2
2017-08-17T12:46:42.211Z,1010.2
2017-08-17T12:47:43.857Z,1010.2
2017-08-17T12:48:45.496Z,1010.2
2017-08-17T12:49:47.134Z,1010.2
2017-08-17T12:50:48.771Z,1010.2
2017-08-17T12:51:50.413Z,1010.3
2017-08-17T12:52:52.052Z,1010.2
2017-08-17T12:53:53.692Z,1010.3
2017-08-17T12:54:55.330Z,1010.3
2017-08-17T12:55:56.993Z,1010.2
2017-08-17T12:56:58.609Z,1010.3
2017-08-17T12:58:00.244Z,1010.2
2017-08-17T12:59:01.883Z,1010.3
2017-08-17T13:00:03.525Z,1010.3
2017-08-17T13:01:05.164Z,1010.3
2017-08-17T13:02:06.804Z,1010.4
2017-08-17T13:03:08.444Z,1010.3
2017-08-17T13:04:10.089Z,1010.4
2017-08-17T13:05:11.724Z,1010.4
2017-08-17T13:06:13.359Z,1010.4
2017-08-17T13:07:15.002Z,1010.4
2017-08-17T13:08:16.642Z,1010.4
2017-08-17T13:09:18.292Z,1010.4
2017-08-17T13:10:19.920Z,1010.5
2017-08-17T13:11:21.563Z,1010.4
2017-08-17T13:12:23.195Z,1010.5
2017-08-17T13:13:24.836Z,1010.5
2017-08-17T13:14:26.473Z,1010.4
2017-08-17T13:15:28.110Z,1010.5
2017-08-17T13:16:29.750Z,1010.5
2017-08-17T13:17:31.386Z,1010.5
2017-08-17T13:18:33.022Z,1010.5